sensor_id;sensor_type;location;lat;lon;timestamp;P1;durP1;ratioP1;P2;durP2;ratioP2
26656;SDS011;14279;50.010;8.260;2022-11-12T00:00:32;41.47;;;18.83;;
26656;SDS011;14279;50.010;8.260;2022-11-12T00:02:58;36.40;;;18.73;;
26656;SDS011;14279;50.010;8.260;2022-11-12T00:05:23;41.43;;;20.00;;
26656;SDS011;14279;50.010;8.260;2022-11-12T00:07:49;37.23;;;18.83;;
26656;SDS011;14279;50.010;8.260;2022-11-12T00:10:14;36.90;;;19.20;;
26656;SDS011;14279;50.010;8.260;2022-11-12T00:12:40;37.40;;;18.63;;
26656;SDS011;14279;50.010;8.260;2022-11-12T00:15:05;46.80;;;20.67;;
26656;SDS011;14279;50.010;8.260;2022-11-12T00:17:31;38.90;;;18.63;;
26656;SDS011;14279;50.010;8.260;2022-11-12T00:19:56;40.50;;;18.33;;
26656;SDS011;14279;50.010;8.260;2022-11-12T00:22:21;32.97;;;18.30;;
26656;SDS011;14279;50.010;8.260;2022-11-12T00:24:47;33.23;;;19.20;;
26656;SDS011;14279;50.010;8.260;2022-11-12T00:27:12;37.57;;;18.10;;
26656;SDS011;14279;50.010;8.260;2022-11-12T00:29:38;39.50;;;20.20;;
26656;SDS011;14279;50.010;8.260;2022-11-12T00:32:06;45.30;;;20.37;;
26656;SDS011;14279;50.010;8.260;2022-11-12T00:34:32;39.43;;;19.70;;
26656;SDS011;14279;50.010;8.260;2022-11-12T00:36:58;38.87;;;19.63;;
26656;SDS011;14279;50.010;8.260;2022-11-12T00:39:24;41.97;;;19.90;;
26656;SDS011;14279;50.010;8.260;2022-11-12T00:41:49;38.20;;;19.67;;
26656;SDS011;14279;50.010;8.260;2022-11-12T00:44:14;35.57;;;18.60;;
26656;SDS011;14279;50.010;8.260;2022-11-12T00:46:40;32.80;;;18.30;;
26656;SDS011;14279;50.010;8.260;2022-11-12T00:49:05;42.60;;;19.40;;
26656;SDS011;14279;50.010;8.260;2022-11-12T00:51:31;45.60;;;18.67;;
26656;SDS011;14279;50.010;8.260;2022-11-12T00:53:56;34.00;;;17.87;;
26656;SDS011;14279;50.010;8.260;2022-11-12T00:56:21;45.50;;;19.00;;
26656;SDS011;14279;50.010;8.260;2022-11-12T00:58:46;36.03;;;19.30;;
26656;SDS011;14279;50.010;8.260;2022-11-12T01:01:13;42.87;;;19.30;;
26656;SDS011;14279;50.010;8.260;2022-11-12T01:03:39;44.00;;;20.27;;
26656;SDS011;14279;50.010;8.260;2022-11-12T01:06:07;41.40;;;19.57;;
26656;SDS011;14279;50.010;8.260;2022-11-12T01:08:34;47.20;;;19.93;;
26656;SDS011;14279;50.010;8.260;2022-11-12T01:11:03;84.43;;;20.00;;
26656;SDS011;14279;50.010;8.260;2022-11-12T01:13:38;58.93;;;19.97;;
26656;SDS011;14279;50.010;8.260;2022-11-12T01:16:05;44.93;;;20.07;;
26656;SDS011;14279;50.010;8.260;2022-11-12T01:18:31;44.67;;;18.80;;
26656;SDS011;14279;50.010;8.260;2022-11-12T01:21:00;57.87;;;18.63;;
26656;SDS011;14279;50.010;8.260;2022-11-12T01:23:26;46.03;;;18.90;;
26656;SDS011;14279;50.010;8.260;2022-11-12T01:25:52;53.73;;;19.77;;
26656;SDS011;14279;50.010;8.260;2022-11-12T01:28:17;52.60;;;20.77;;
26656;SDS011;14279;50.010;8.260;2022-11-12T01:30:42;50.97;;;21.70;;
26656;SDS011;14279;50.010;8.260;2022-11-12T01:33:08;69.90;;;20.07;;
26656;SDS011;14279;50.010;8.260;2022-11-12T01:35:33;82.27;;;22.37;;
26656;SDS011;14279;50.010;8.260;2022-11-12T01:37:58;62.63;;;29.83;;
26656;SDS011;14279;50.010;8.260;2022-11-12T01:40:23;48.90;;;24.27;;
26656;SDS011;14279;50.010;8.260;2022-11-12T01:42:52;44.00;;;21.97;;
26656;SDS011;14279;50.010;8.260;2022-11-12T01:45:18;155.53;;;23.77;;
26656;SDS011;14279;50.010;8.260;2022-11-12T01:47:44;65.57;;;22.97;;
26656;SDS011;14279;50.010;8.260;2022-11-12T01:50:16;87.53;;;22.40;;
26656;SDS011;14279;50.010;8.260;2022-11-12T01:53:02;36.17;;;19.10;;
26656;SDS011;14279;50.010;8.260;2022-11-12T01:55:33;54.30;;;18.77;;
26656;SDS011;14279;50.010;8.260;2022-11-12T01:58:04;52.63;;;17.83;;
26656;SDS011;14279;50.010;8.260;2022-11-12T02:00:34;70.37;;;17.80;;
26656;SDS011;14279;50.010;8.260;2022-11-12T02:03:00;63.30;;;18.23;;
26656;SDS011;14279;50.010;8.260;2022-11-12T02:05:29;42.63;;;17.70;;
26656;SDS011;14279;50.010;8.260;2022-11-12T02:07:56;84.27;;;19.03;;
26656;SDS011;14279;50.010;8.260;2022-11-12T02:10:24;47.70;;;18.27;;
26656;SDS011;14279;50.010;8.260;2022-11-12T02:12:50;77.83;;;18.50;;
26656;SDS011;14279;50.010;8.260;2022-11-12T02:15:36;49.07;;;17.80;;
26656;SDS011;14279;50.010;8.260;2022-11-12T02:18:02;47.07;;;19.47;;
26656;SDS011;14279;50.010;8.260;2022-11-12T02:20:31;52.40;;;20.20;;
26656;SDS011;14279;50.010;8.260;2022-11-12T02:22:57;39.40;;;18.60;;
26656;SDS011;14279;50.010;8.260;2022-11-12T02:25:22;35.37;;;17.90;;
26656;SDS011;14279;50.010;8.260;2022-11-12T02:27:51;100.87;;;19.63;;
26656;SDS011;14279;50.010;8.260;2022-11-12T02:30:19;47.47;;;18.30;;
26656;SDS011;14279;50.010;8.260;2022-11-12T02:32:55;210.40;;;26.03;;
26656;SDS011;14279;50.010;8.260;2022-11-12T02:35:20;83.43;;;20.70;;
26656;SDS011;14279;50.010;8.260;2022-11-12T02:37:45;61.00;;;22.40;;
26656;SDS011;14279;50.010;8.260;2022-11-12T02:40:11;107.50;;;23.20;;
26656;SDS011;14279;50.010;8.260;2022-11-12T02:42:36;74.40;;;21.33;;
26656;SDS011;14279;50.010;8.260;2022-11-12T02:45:01;136.40;;;23.00;;
26656;SDS011;14279;50.010;8.260;2022-11-12T02:47:27;67.47;;;21.20;;
26656;SDS011;14279;50.010;8.260;2022-11-12T02:49:52;101.87;;;21.07;;
26656;SDS011;14279;50.010;8.260;2022-11-12T02:52:17;122.97;;;24.10;;
26656;SDS011;14279;50.010;8.260;2022-11-12T02:54:43;77.00;;;19.57;;
26656;SDS011;14279;50.010;8.260;2022-11-12T02:57:08;73.20;;;20.70;;
26656;SDS011;14279;50.010;8.260;2022-11-12T02:59:33;36.50;;;19.03;;
26656;SDS011;14279;50.010;8.260;2022-11-12T03:01:58;47.77;;;20.20;;
26656;SDS011;14279;50.010;8.260;2022-11-12T03:04:24;73.27;;;22.13;;
26656;SDS011;14279;50.010;8.260;2022-11-12T03:06:49;56.27;;;18.23;;
26656;SDS011;14279;50.010;8.260;2022-11-12T03:09:14;34.67;;;18.33;;
26656;SDS011;14279;50.010;8.260;2022-11-12T03:11:39;31.67;;;16.30;;
26656;SDS011;14279;50.010;8.260;2022-11-12T03:14:05;62.30;;;17.27;;
26656;SDS011;14279;50.010;8.260;2022-11-12T03:16:30;35.50;;;16.83;;
26656;SDS011;14279;50.010;8.260;2022-11-12T03:18:55;90.37;;;17.97;;
26656;SDS011;14279;50.010;8.260;2022-11-12T03:21:21;36.23;;;15.20;;
26656;SDS011;14279;50.010;8.260;2022-11-12T03:23:46;42.57;;;17.83;;
26656;SDS011;14279;50.010;8.260;2022-11-12T03:26:11;72.83;;;18.33;;
26656;SDS011;14279;50.010;8.260;2022-11-12T03:28:36;72.40;;;18.30;;
26656;SDS011;14279;50.010;8.260;2022-11-12T03:31:02;174.30;;;21.63;;
26656;SDS011;14279;50.010;8.260;2022-11-12T03:33:27;106.70;;;17.57;;
26656;SDS011;14279;50.010;8.260;2022-11-12T03:35:52;42.50;;;14.47;;
26656;SDS011;14279;50.010;8.260;2022-11-12T03:38:18;68.77;;;16.17;;
26656;SDS011;14279;50.010;8.260;2022-11-12T03:40:43;25.60;;;14.60;;
26656;SDS011;14279;50.010;8.260;2022-11-12T03:43:08;40.70;;;15.60;;
26656;SDS011;14279;50.010;8.260;2022-11-12T03:45:33;61.20;;;15.20;;
26656;SDS011;14279;50.010;8.260;2022-11-12T03:47:59;28.83;;;14.77;;
26656;SDS011;14279;50.010;8.260;2022-11-12T03:50:25;30.43;;;15.23;;
26656;SDS011;14279;50.010;8.260;2022-11-12T03:52:53;44.90;;;13.47;;
26656;SDS011;14279;50.010;8.260;2022-11-12T03:55:23;31.53;;;15.00;;
26656;SDS011;14279;50.010;8.260;2022-11-12T03:57:51;24.87;;;14.33;;
26656;SDS011;14279;50.010;8.260;2022-11-12T04:00:18;32.00;;;14.13;;
26656;SDS011;14279;50.010;8.260;2022-11-12T04:02:44;49.73;;;15.50;;
26656;SDS011;14279;50.010;8.260;2022-11-12T04:05:09;32.47;;;14.10;;
26656;SDS011;14279;50.010;8.260;2022-11-12T04:07:58;34.90;;;15.07;;
26656;SDS011;14279;50.010;8.260;2022-11-12T04:10:42;29.40;;;14.40;;
26656;SDS011;14279;50.010;8.260;2022-11-12T04:13:08;24.77;;;14.30;;
26656;SDS011;14279;50.010;8.260;2022-11-12T04:15:52;29.50;;;14.50;;
26656;SDS011;14279;50.010;8.260;2022-11-12T04:18:47;33.53;;;14.30;;
26656;SDS011;14279;50.010;8.260;2022-11-12T04:21:44;25.17;;;14.97;;
26656;SDS011;14279;50.010;8.260;2022-11-12T04:27:12;31.03;;;14.70;;
26656;SDS011;14279;50.010;8.260;2022-11-12T04:29:43;41.23;;;14.83;;
26656;SDS011;14279;50.010;8.260;2022-11-12T04:32:29;61.50;;;15.40;;
26656;SDS011;14279;50.010;8.260;2022-11-12T04:34:56;37.73;;;14.67;;
26656;SDS011;14279;50.010;8.260;2022-11-12T04:37:22;60.13;;;16.70;;
26656;SDS011;14279;50.010;8.260;2022-11-12T04:39:49;34.13;;;14.60;;
26656;SDS011;14279;50.010;8.260;2022-11-12T04:42:15;59.83;;;17.27;;
26656;SDS011;14279;50.010;8.260;2022-11-12T04:44:59;23.27;;;14.20;;
26656;SDS011;14279;50.010;8.260;2022-11-12T04:47:35;44.20;;;14.77;;
26656;SDS011;14279;50.010;8.260;2022-11-12T04:50:09;24.30;;;15.30;;
26656;SDS011;14279;50.010;8.260;2022-11-12T04:52:38;27.93;;;14.80;;
26656;SDS011;14279;50.010;8.260;2022-11-12T04:55:03;28.23;;;15.10;;
26656;SDS011;14279;50.010;8.260;2022-11-12T04:57:29;31.70;;;15.20;;
26656;SDS011;14279;50.010;8.260;2022-11-12T04:59:54;38.03;;;15.23;;
26656;SDS011;14279;50.010;8.260;2022-11-12T05:02:19;31.60;;;14.80;;
26656;SDS011;14279;50.010;8.260;2022-11-12T05:04:45;29.63;;;12.70;;
26656;SDS011;14279;50.010;8.260;2022-11-12T05:07:10;21.70;;;12.20;;
26656;SDS011;14279;50.010;8.260;2022-11-12T05:09:36;21.37;;;11.70;;
26656;SDS011;14279;50.010;8.260;2022-11-12T05:12:02;22.43;;;11.00;;
26656;SDS011;14279;50.010;8.260;2022-11-12T05:14:27;21.63;;;11.57;;
26656;SDS011;14279;50.010;8.260;2022-11-12T05:16:52;18.33;;;12.07;;
26656;SDS011;14279;50.010;8.260;2022-11-12T05:19:18;23.87;;;11.13;;
26656;SDS011;14279;50.010;8.260;2022-11-12T05:21:43;17.20;;;11.50;;
26656;SDS011;14279;50.010;8.260;2022-11-12T05:24:28;28.97;;;12.63;;
26656;SDS011;14279;50.010;8.260;2022-11-12T05:26:53;28.00;;;11.00;;
26656;SDS011;14279;50.010;8.260;2022-11-12T05:29:19;19.73;;;10.27;;
26656;SDS011;14279;50.010;8.260;2022-11-12T05:31:44;21.10;;;10.40;;
26656;SDS011;14279;50.010;8.260;2022-11-12T05:34:10;19.30;;;10.43;;
26656;SDS011;14279;50.010;8.260;2022-11-12T05:36:35;35.27;;;9.43;;
26656;SDS011;14279;50.010;8.260;2022-11-12T05:39:01;21.23;;;9.37;;
26656;SDS011;14279;50.010;8.260;2022-11-12T05:41:26;15.07;;;9.00;;
26656;SDS011;14279;50.010;8.260;2022-11-12T05:43:52;18.13;;;8.50;;
26656;SDS011;14279;50.010;8.260;2022-11-12T05:46:20;13.27;;;8.60;;
26656;SDS011;14279;50.010;8.260;2022-11-12T05:48:45;19.93;;;9.20;;
26656;SDS011;14279;50.010;8.260;2022-11-12T05:51:10;17.67;;;8.60;;
26656;SDS011;14279;50.010;8.260;2022-11-12T05:53:37;19.73;;;9.63;;
26656;SDS011;14279;50.010;8.260;2022-11-12T05:56:03;19.33;;;9.63;;
26656;SDS011;14279;50.010;8.260;2022-11-12T05:58:30;14.77;;;8.13;;
26656;SDS011;14279;50.010;8.260;2022-11-12T06:00:56;14.17;;;8.27;;
26656;SDS011;14279;50.010;8.260;2022-11-12T06:03:22;13.73;;;8.80;;
26656;SDS011;14279;50.010;8.260;2022-11-12T06:05:48;15.93;;;10.10;;
26656;SDS011;14279;50.010;8.260;2022-11-12T06:08:13;18.17;;;9.30;;
26656;SDS011;14279;50.010;8.260;2022-11-12T06:10:38;20.80;;;10.07;;
26656;SDS011;14279;50.010;8.260;2022-11-12T06:13:04;17.00;;;9.93;;
26656;SDS011;14279;50.010;8.260;2022-11-12T06:15:29;18.70;;;10.13;;
26656;SDS011;14279;50.010;8.260;2022-11-12T06:17:54;14.60;;;8.33;;
26656;SDS011;14279;50.010;8.260;2022-11-12T06:20:23;12.30;;;9.07;;
26656;SDS011;14279;50.010;8.260;2022-11-12T06:22:48;17.17;;;8.57;;
26656;SDS011;14279;50.010;8.260;2022-11-12T06:25:15;12.90;;;9.13;;
26656;SDS011;14279;50.010;8.260;2022-11-12T06:27:41;16.97;;;9.70;;
26656;SDS011;14279;50.010;8.260;2022-11-12T06:30:07;17.67;;;9.10;;
26656;SDS011;14279;50.010;8.260;2022-11-12T06:32:33;16.30;;;10.67;;
26656;SDS011;14279;50.010;8.260;2022-11-12T06:34:58;17.50;;;10.87;;
26656;SDS011;14279;50.010;8.260;2022-11-12T06:37:23;24.50;;;11.20;;
26656;SDS011;14279;50.010;8.260;2022-11-12T06:39:49;18.90;;;10.70;;
26656;SDS011;14279;50.010;8.260;2022-11-12T06:42:14;21.80;;;10.80;;
26656;SDS011;14279;50.010;8.260;2022-11-12T06:44:40;18.27;;;10.27;;
26656;SDS011;14279;50.010;8.260;2022-11-12T06:47:05;23.33;;;11.37;;
26656;SDS011;14279;50.010;8.260;2022-11-12T06:49:31;15.00;;;9.27;;
26656;SDS011;14279;50.010;8.260;2022-11-12T06:51:56;35.33;;;10.17;;
26656;SDS011;14279;50.010;8.260;2022-11-12T06:54:21;16.27;;;9.63;;
26656;SDS011;14279;50.010;8.260;2022-11-12T06:56:47;15.30;;;9.67;;
26656;SDS011;14279;50.010;8.260;2022-11-12T06:59:12;18.63;;;9.97;;
26656;SDS011;14279;50.010;8.260;2022-11-12T07:01:37;17.87;;;9.50;;
26656;SDS011;14279;50.010;8.260;2022-11-12T07:04:02;21.60;;;8.90;;
26656;SDS011;14279;50.010;8.260;2022-11-12T07:06:28;16.50;;;10.10;;
26656;SDS011;14279;50.010;8.260;2022-11-12T07:08:53;34.27;;;10.07;;
26656;SDS011;14279;50.010;8.260;2022-11-12T07:11:18;19.13;;;9.20;;
26656;SDS011;14279;50.010;8.260;2022-11-12T07:13:44;53.23;;;10.43;;
26656;SDS011;14279;50.010;8.260;2022-11-12T07:16:11;20.90;;;10.40;;
26656;SDS011;14279;50.010;8.260;2022-11-12T07:18:44;25.33;;;10.73;;
26656;SDS011;14279;50.010;8.260;2022-11-12T07:21:14;17.33;;;10.40;;
26656;SDS011;14279;50.010;8.260;2022-11-12T07:23:41;18.30;;;10.10;;
26656;SDS011;14279;50.010;8.260;2022-11-12T07:26:11;23.80;;;11.50;;
26656;SDS011;14279;50.010;8.260;2022-11-12T07:28:38;22.00;;;10.70;;
26656;SDS011;14279;50.010;8.260;2022-11-12T07:31:05;28.53;;;11.53;;
26656;SDS011;14279;50.010;8.260;2022-11-12T07:33:32;21.40;;;11.50;;
26656;SDS011;14279;50.010;8.260;2022-11-12T07:36:05;26.80;;;12.13;;
26656;SDS011;14279;50.010;8.260;2022-11-12T07:38:33;16.87;;;10.53;;
26656;SDS011;14279;50.010;8.260;2022-11-12T07:43:26;24.47;;;11.40;;
26656;SDS011;14279;50.010;8.260;2022-11-12T07:45:59;27.00;;;12.07;;
26656;SDS011;14279;50.010;8.260;2022-11-12T07:48:26;20.60;;;11.73;;
26656;SDS011;14279;50.010;8.260;2022-11-12T07:50:58;29.93;;;12.10;;
26656;SDS011;14279;50.010;8.260;2022-11-12T07:53:24;22.30;;;11.83;;
26656;SDS011;14279;50.010;8.260;2022-11-12T07:55:53;22.43;;;11.87;;
26656;SDS011;14279;50.010;8.260;2022-11-12T07:58:20;19.57;;;11.77;;
26656;SDS011;14279;50.010;8.260;2022-11-12T08:00:46;18.30;;;11.97;;
26656;SDS011;14279;50.010;8.260;2022-11-12T08:03:11;20.07;;;12.60;;
26656;SDS011;14279;50.010;8.260;2022-11-12T08:05:36;18.00;;;11.10;;
26656;SDS011;14279;50.010;8.260;2022-11-12T08:08:01;17.73;;;11.77;;
26656;SDS011;14279;50.010;8.260;2022-11-12T08:10:27;16.20;;;11.33;;
26656;SDS011;14279;50.010;8.260;2022-11-12T08:12:54;24.20;;;12.27;;
26656;SDS011;14279;50.010;8.260;2022-11-12T08:15:20;19.57;;;12.03;;
26656;SDS011;14279;50.010;8.260;2022-11-12T08:17:46;19.63;;;12.20;;
26656;SDS011;14279;50.010;8.260;2022-11-12T08:20:12;21.77;;;12.40;;
26656;SDS011;14279;50.010;8.260;2022-11-12T08:22:37;21.20;;;11.43;;
26656;SDS011;14279;50.010;8.260;2022-11-12T08:25:02;19.17;;;12.23;;
26656;SDS011;14279;50.010;8.260;2022-11-12T08:27:43;21.40;;;11.80;;
26656;SDS011;14279;50.010;8.260;2022-11-12T08:30:08;18.00;;;11.20;;
26656;SDS011;14279;50.010;8.260;2022-11-12T08:32:34;18.33;;;11.63;;
26656;SDS011;14279;50.010;8.260;2022-11-12T08:34:59;20.70;;;12.67;;
26656;SDS011;14279;50.010;8.260;2022-11-12T08:37:24;22.53;;;12.73;;
26656;SDS011;14279;50.010;8.260;2022-11-12T08:39:50;20.17;;;12.57;;
26656;SDS011;14279;50.010;8.260;2022-11-12T08:42:15;20.60;;;13.13;;
26656;SDS011;14279;50.010;8.260;2022-11-12T08:44:40;20.77;;;12.70;;
26656;SDS011;14279;50.010;8.260;2022-11-12T08:47:05;19.37;;;12.87;;
26656;SDS011;14279;50.010;8.260;2022-11-12T08:49:32;21.10;;;13.50;;
26656;SDS011;14279;50.010;8.260;2022-11-12T08:51:57;21.47;;;13.57;;
26656;SDS011;14279;50.010;8.260;2022-11-12T08:54:25;24.60;;;14.10;;
26656;SDS011;14279;50.010;8.260;2022-11-12T08:57:00;27.00;;;12.90;;
26656;SDS011;14279;50.010;8.260;2022-11-12T08:59:28;25.07;;;13.67;;
26656;SDS011;14279;50.010;8.260;2022-11-12T09:01:54;18.67;;;13.30;;
26656;SDS011;14279;50.010;8.260;2022-11-12T09:04:19;20.43;;;13.17;;
26656;SDS011;14279;50.010;8.260;2022-11-12T09:06:44;22.73;;;14.37;;
26656;SDS011;14279;50.010;8.260;2022-11-12T09:09:10;30.27;;;15.60;;
26656;SDS011;14279;50.010;8.260;2022-11-12T09:11:35;22.50;;;13.87;;
26656;SDS011;14279;50.010;8.260;2022-11-12T09:14:01;22.13;;;15.20;;
26656;SDS011;14279;50.010;8.260;2022-11-12T09:16:26;29.23;;;15.70;;
26656;SDS011;14279;50.010;8.260;2022-11-12T09:18:59;24.90;;;14.77;;
26656;SDS011;14279;50.010;8.260;2022-11-12T09:21:56;28.13;;;16.73;;
26656;SDS011;14279;50.010;8.260;2022-11-12T09:24:48;28.40;;;17.40;;
26656;SDS011;14279;50.010;8.260;2022-11-12T09:27:14;27.93;;;15.60;;
26656;SDS011;14279;50.010;8.260;2022-11-12T09:29:41;26.27;;;15.70;;
26656;SDS011;14279;50.010;8.260;2022-11-12T09:32:07;31.80;;;16.33;;
26656;SDS011;14279;50.010;8.260;2022-11-12T09:34:32;28.77;;;16.83;;
26656;SDS011;14279;50.010;8.260;2022-11-12T09:36:57;27.00;;;15.70;;
26656;SDS011;14279;50.010;8.260;2022-11-12T09:39:22;28.17;;;16.33;;
26656;SDS011;14279;50.010;8.260;2022-11-12T09:41:48;24.37;;;15.37;;
26656;SDS011;14279;50.010;8.260;2022-11-12T09:44:19;30.50;;;16.90;;
26656;SDS011;14279;50.010;8.260;2022-11-12T09:47:05;27.03;;;16.80;;
26656;SDS011;14279;50.010;8.260;2022-11-12T09:53:43;29.53;;;18.23;;
26656;SDS011;14279;50.010;8.260;2022-11-12T09:55:54;30.50;;;17.13;;
26656;SDS011;14279;50.010;8.260;2022-11-12T09:58:20;33.83;;;18.57;;
26656;SDS011;14279;50.010;8.260;2022-11-12T10:00:55;33.07;;;18.67;;
26656;SDS011;14279;50.010;8.260;2022-11-12T10:06:20;28.70;;;17.20;;
26656;SDS011;14279;50.010;8.260;2022-11-12T10:09:04;31.87;;;18.90;;
26656;SDS011;14279;50.010;8.260;2022-11-12T10:12:08;30.40;;;19.17;;
26656;SDS011;14279;50.010;8.260;2022-11-12T10:20:29;31.63;;;20.37;;
26656;SDS011;14279;50.010;8.260;2022-11-12T10:25:51;30.87;;;19.53;;
26656;SDS011;14279;50.010;8.260;2022-11-12T10:31:15;32.57;;;21.20;;
26656;SDS011;14279;50.010;8.260;2022-11-12T10:33:42;34.50;;;21.87;;
26656;SDS011;14279;50.010;8.260;2022-11-12T10:36:19;40.93;;;25.40;;
26656;SDS011;14279;50.010;8.260;2022-11-12T10:38:52;35.60;;;22.90;;
26656;SDS011;14279;50.010;8.260;2022-11-12T10:41:22;43.00;;;24.00;;
26656;SDS011;14279;50.010;8.260;2022-11-12T10:43:55;36.10;;;22.17;;
26656;SDS011;14279;50.010;8.260;2022-11-12T10:46:24;38.30;;;23.50;;
26656;SDS011;14279;50.010;8.260;2022-11-12T10:49:01;39.23;;;23.30;;
26656;SDS011;14279;50.010;8.260;2022-11-12T10:51:40;41.67;;;24.80;;
26656;SDS011;14279;50.010;8.260;2022-11-12T10:54:18;36.00;;;23.83;;
26656;SDS011;14279;50.010;8.260;2022-11-12T10:56:43;36.07;;;23.00;;
26656;SDS011;14279;50.010;8.260;2022-11-12T10:59:10;32.97;;;20.53;;
26656;SDS011;14279;50.010;8.260;2022-11-12T11:01:40;34.77;;;22.20;;
26656;SDS011;14279;50.010;8.260;2022-11-12T11:04:49;36.43;;;22.37;;
26656;SDS011;14279;50.010;8.260;2022-11-12T11:07:06;34.03;;;21.97;;
26656;SDS011;14279;50.010;8.260;2022-11-12T11:09:54;38.50;;;23.47;;
26656;SDS011;14279;50.010;8.260;2022-11-12T11:12:25;38.20;;;24.30;;
26656;SDS011;14279;50.010;8.260;2022-11-12T11:15:03;33.43;;;22.27;;
26656;SDS011;14279;50.010;8.260;2022-11-12T11:17:35;36.33;;;23.57;;
26656;SDS011;14279;50.010;8.260;2022-11-12T11:20:02;42.63;;;24.90;;
26656;SDS011;14279;50.010;8.260;2022-11-12T11:22:40;41.97;;;25.67;;
26656;SDS011;14279;50.010;8.260;2022-11-12T11:25:22;39.93;;;25.03;;
26656;SDS011;14279;50.010;8.260;2022-11-12T11:27:56;32.93;;;23.30;;
26656;SDS011;14279;50.010;8.260;2022-11-12T11:30:28;37.90;;;24.37;;
26656;SDS011;14279;50.010;8.260;2022-11-12T11:39:23;35.47;;;24.10;;
26656;SDS011;14279;50.010;8.260;2022-11-12T11:44:50;39.03;;;25.60;;
26656;SDS011;14279;50.010;8.260;2022-11-12T11:47:36;39.50;;;25.50;;
26656;SDS011;14279;50.010;8.260;2022-11-12T11:50:15;37.33;;;24.47;;
26656;SDS011;14279;50.010;8.260;2022-11-12T11:58:33;42.07;;;27.80;;
26656;SDS011;14279;50.010;8.260;2022-11-12T12:13:01;46.73;;;30.00;;
26656;SDS011;14279;50.010;8.260;2022-11-12T12:18:51;48.33;;;31.37;;
26656;SDS011;14279;50.010;8.260;2022-11-12T12:21:25;50.00;;;31.70;;
26656;SDS011;14279;50.010;8.260;2022-11-12T12:23:59;46.37;;;31.00;;
26656;SDS011;14279;50.010;8.260;2022-11-12T12:26:34;42.97;;;31.00;;
26656;SDS011;14279;50.010;8.260;2022-11-12T12:29:05;49.87;;;31.77;;
26656;SDS011;14279;50.010;8.260;2022-11-12T12:31:39;45.20;;;30.37;;
26656;SDS011;14279;50.010;8.260;2022-11-12T12:34:14;44.27;;;31.00;;
26656;SDS011;14279;50.010;8.260;2022-11-12T12:36:44;40.00;;;28.63;;
26656;SDS011;14279;50.010;8.260;2022-11-12T12:39:21;42.27;;;29.77;;
26656;SDS011;14279;50.010;8.260;2022-11-12T12:41:57;37.63;;;28.40;;
26656;SDS011;14279;50.010;8.260;2022-11-12T12:44:50;44.27;;;27.83;;
26656;SDS011;14279;50.010;8.260;2022-11-12T12:47:25;39.00;;;27.63;;
26656;SDS011;14279;50.010;8.260;2022-11-12T12:49:54;38.23;;;28.43;;
26656;SDS011;14279;50.010;8.260;2022-11-12T12:52:22;41.87;;;30.40;;
26656;SDS011;14279;50.010;8.260;2022-11-12T12:57:32;48.73;;;31.87;;
26656;SDS011;14279;50.010;8.260;2022-11-12T13:02:52;42.60;;;30.30;;
26656;SDS011;14279;50.010;8.260;2022-11-12T13:07:55;45.03;;;28.87;;
26656;SDS011;14279;50.010;8.260;2022-11-12T13:10:32;41.13;;;28.80;;
26656;SDS011;14279;50.010;8.260;2022-11-12T13:15:43;43.07;;;30.73;;
26656;SDS011;14279;50.010;8.260;2022-11-12T13:18:10;46.50;;;30.60;;
26656;SDS011;14279;50.010;8.260;2022-11-12T13:20:38;47.80;;;31.73;;
26656;SDS011;14279;50.010;8.260;2022-11-12T13:23:09;51.93;;;31.67;;
26656;SDS011;14279;50.010;8.260;2022-11-12T13:25:36;40.50;;;29.00;;
26656;SDS011;14279;50.010;8.260;2022-11-12T13:28:03;44.97;;;31.70;;
26656;SDS011;14279;50.010;8.260;2022-11-12T13:32:56;36.47;;;27.47;;
26656;SDS011;14279;50.010;8.260;2022-11-12T13:42:50;41.10;;;30.57;;
26656;SDS011;14279;50.010;8.260;2022-11-12T13:45:17;46.67;;;31.50;;
26656;SDS011;14279;50.010;8.260;2022-11-12T13:47:45;40.17;;;32.03;;
26656;SDS011;14279;50.010;8.260;2022-11-12T13:50:13;45.10;;;30.33;;
26656;SDS011;14279;50.010;8.260;2022-11-12T13:52:41;37.47;;;27.63;;
26656;SDS011;14279;50.010;8.260;2022-11-12T13:55:15;37.97;;;28.27;;
26656;SDS011;14279;50.010;8.260;2022-11-12T13:57:47;56.30;;;30.43;;
26656;SDS011;14279;50.010;8.260;2022-11-12T14:02:44;43.70;;;30.60;;
26656;SDS011;14279;50.010;8.260;2022-11-12T14:05:21;48.00;;;30.47;;
26656;SDS011;14279;50.010;8.260;2022-11-12T14:24:40;46.40;;;32.33;;
26656;SDS011;14279;50.010;8.260;2022-11-12T14:27:22;44.47;;;32.77;;
26656;SDS011;14279;50.010;8.260;2022-11-12T14:33:06;48.77;;;32.83;;
26656;SDS011;14279;50.010;8.260;2022-11-12T14:35:35;41.53;;;31.00;;
26656;SDS011;14279;50.010;8.260;2022-11-12T14:40:36;45.27;;;32.90;;
26656;SDS011;14279;50.010;8.260;2022-11-12T14:43:14;43.60;;;32.63;;
26656;SDS011;14279;50.010;8.260;2022-11-12T14:45:57;41.70;;;31.50;;
26656;SDS011;14279;50.010;8.260;2022-11-12T14:51:31;43.13;;;31.83;;
26656;SDS011;14279;50.010;8.260;2022-11-12T14:54:05;44.17;;;32.47;;
26656;SDS011;14279;50.010;8.260;2022-11-12T14:56:36;42.13;;;31.50;;
26656;SDS011;14279;50.010;8.260;2022-11-12T14:59:05;43.77;;;32.57;;
26656;SDS011;14279;50.010;8.260;2022-11-12T15:01:34;45.90;;;32.93;;
26656;SDS011;14279;50.010;8.260;2022-11-12T15:04:03;43.43;;;31.77;;
26656;SDS011;14279;50.010;8.260;2022-11-12T15:06:30;43.37;;;31.20;;
26656;SDS011;14279;50.010;8.260;2022-11-12T15:08:57;42.07;;;30.27;;
26656;SDS011;14279;50.010;8.260;2022-11-12T15:11:34;46.20;;;32.10;;
26656;SDS011;14279;50.010;8.260;2022-11-12T15:14:08;44.80;;;32.03;;
26656;SDS011;14279;50.010;8.260;2022-11-12T15:16:37;40.40;;;31.53;;
26656;SDS011;14279;50.010;8.260;2022-11-12T15:21:46;51.03;;;35.43;;
26656;SDS011;14279;50.010;8.260;2022-11-12T15:24:31;51.00;;;36.30;;
26656;SDS011;14279;50.010;8.260;2022-11-12T15:27:00;51.87;;;36.57;;
26656;SDS011;14279;50.010;8.260;2022-11-12T15:29:45;54.97;;;37.33;;
26656;SDS011;14279;50.010;8.260;2022-11-12T15:37:05;53.73;;;36.80;;
26656;SDS011;14279;50.010;8.260;2022-11-12T15:39:33;50.00;;;35.57;;
26656;SDS011;14279;50.010;8.260;2022-11-12T15:42:12;53.90;;;37.87;;
26656;SDS011;14279;50.010;8.260;2022-11-12T15:44:40;56.17;;;39.00;;
26656;SDS011;14279;50.010;8.260;2022-11-12T15:47:07;57.90;;;39.67;;
26656;SDS011;14279;50.010;8.260;2022-11-12T15:49:49;59.03;;;39.70;;
26656;SDS011;14279;50.010;8.260;2022-11-12T15:52:21;58.83;;;38.70;;
26656;SDS011;14279;50.010;8.260;2022-11-12T15:54:50;60.03;;;39.90;;
26656;SDS011;14279;50.010;8.260;2022-11-12T15:57:45;60.10;;;40.33;;
26656;SDS011;14279;50.010;8.260;2022-11-12T16:00:15;54.20;;;38.50;;
26656;SDS011;14279;50.010;8.260;2022-11-12T16:02:44;60.23;;;39.67;;
26656;SDS011;14279;50.010;8.260;2022-11-12T16:05:16;54.20;;;38.23;;
26656;SDS011;14279;50.010;8.260;2022-11-12T16:07:42;57.33;;;39.53;;
26656;SDS011;14279;50.010;8.260;2022-11-12T16:10:14;55.17;;;39.63;;
26656;SDS011;14279;50.010;8.260;2022-11-12T16:12:41;60.60;;;39.93;;
26656;SDS011;14279;50.010;8.260;2022-11-12T16:15:10;66.33;;;41.63;;
26656;SDS011;14279;50.010;8.260;2022-11-12T16:17:38;56.03;;;38.30;;
26656;SDS011;14279;50.010;8.260;2022-11-12T16:20:13;58.60;;;40.30;;
26656;SDS011;14279;50.010;8.260;2022-11-12T16:22:40;57.97;;;40.07;;